sensor_id;sensor_type;location;lat;lon;timestamp;pressure;altitude;pressure_sealevel;temperature;humidity
13050;BME280;6591;51.446;5.404;2023-04-03T00:01:53;102664.09;;;7.80;51.68
13050;BME280;6591;51.446;5.404;2023-04-03T00:04:21;102661.47;;;7.80;51.63
13050;BME280;6591;51.446;5.404;2023-04-03T00:06:49;102659.69;;;7.79;51.41
13050;BME280;6591;51.446;5.404;2023-04-03T00:09:16;102665.88;;;7.79;52.06
13050;BME280;6591;51.446;5.404;2023-04-03T00:11:43;102662.34;;;7.77;51.61
13050;BME280;6591;51.446;5.404;2023-04-03T00:14:10;102657.06;;;7.79;51.42
13050;BME280;6591;51.446;5.404;2023-04-03T00:16:37;102668.50;;;7.78;51.46
13050;BME280;6591;51.446;5.404;2023-04-03T00:19:04;102660.59;;;7.73;51.34
13050;BME280;6591;51.446;5.404;2023-04-03T00:21:32;102667.66;;;7.74;51.36
13050;BME280;6591;51.446;5.404;2023-04-03T00:23:59;102661.47;;;7.71;51.54
13050;BME280;6591;51.446;5.404;2023-04-03T00:26:26;102667.69;;;7.68;51.69
13050;BME280;6591;51.446;5.404;2023-04-03T00:28:53;102676.50;;;7.67;51.33
13050;BME280;6591;51.446;5.404;2023-04-03T00:31:21;102672.06;;;7.64;52.02
13050;BME280;6591;51.446;5.404;2023-04-03T00:33:48;102677.34;;;7.64;51.16
13050;BME280;6591;51.446;5.404;2023-04-03T00:36:16;102671.22;;;7.62;51.24
13050;BME280;6591;51.446;5.404;2023-04-03T00:38:43;102680.03;;;7.60;52.02
13050;BME280;6591;51.446;5.404;2023-04-03T00:41:10;102672.97;;;7.60;52.06
13050;BME280;6591;51.446;5.404;2023-04-03T00:43:38;102673.00;;;7.57;51.88
13050;BME280;6591;51.446;5.404;2023-04-03T00:46:05;102673.88;;;7.56;51.90
13050;BME280;6591;51.446;5.404;2023-04-03T00:48:42;102666.84;;;7.52;51.58
13050;BME280;6591;51.446;5.404;2023-04-03T00:51:16;102669.50;;;7.51;52.06
13050;BME280;6591;51.446;5.404;2023-04-03T00:53:54;102675.69;;;7.48;51.69
13050;BME280;6591;51.446;5.404;2023-04-03T00:56:26;102684.47;;;7.47;51.76
13050;BME280;6591;51.446;5.404;2023-04-03T00:59:07;102680.09;;;7.42;51.92
13050;BME280;6591;51.446;5.404;2023-04-03T01:01:37;102684.50;;;7.41;52.39
13050;BME280;6591;51.446;5.404;2023-04-03T01:04:05;102678.31;;;7.41;52.31
13050;BME280;6591;51.446;5.404;2023-04-03T01:06:37;102682.72;;;7.39;52.48
13050;BME280;6591;51.446;5.404;2023-04-03T01:09:07;102683.59;;;7.39;51.88
13050;BME280;6591;51.446;5.404;2023-04-03T01:11:34;102687.16;;;7.37;51.93
13050;BME280;6591;51.446;5.404;2023-04-03T01:14:01;102684.50;;;7.34;51.79
13050;BME280;6591;51.446;5.404;2023-04-03T01:16:29;102681.00;;;7.32;52.07
13050;BME280;6591;51.446;5.404;2023-04-03T01:19:00;102686.28;;;7.30;52.30
13050;BME280;6591;51.446;5.404;2023-04-03T01:24:35;102684.53;;;7.26;52.49
13050;BME280;6591;51.446;5.404;2023-04-03T01:27:08;102688.03;;;7.28;52.54
13050;BME280;6591;51.446;5.404;2023-04-03T01:29:37;102688.91;;;7.29;52.34
13050;BME280;6591;51.446;5.404;2023-04-03T01:32:05;102690.69;;;7.27;52.49
13050;BME280;6591;51.446;5.404;2023-04-03T01:34:32;102684.50;;;7.29;53.64
13050;BME280;6591;51.446;5.404;2023-04-03T01:37:00;102688.91;;;7.30;53.05
13050;BME280;6591;51.446;5.404;2023-04-03T01:39:27;102702.09;;;7.33;53.17
13050;BME280;6591;51.446;5.404;2023-04-03T01:41:54;102694.19;;;7.35;53.60
13050;BME280;6591;51.446;5.404;2023-04-03T01:44:29;102694.22;;;7.38;53.51
13050;BME280;6591;51.446;5.404;2023-04-03T01:46:57;102693.31;;;7.40;54.10
13050;BME280;6591;51.446;5.404;2023-04-03T01:49:26;102686.22;;;7.44;53.48
13050;BME280;6591;51.446;5.404;2023-04-03T01:51:53;102686.25;;;7.45;53.42
13050;BME280;6591;51.446;5.404;2023-04-03T01:54:20;102686.25;;;7.48;53.67
13050;BME280;6591;51.446;5.404;2023-04-03T01:56:48;102686.25;;;7.48;53.74
13050;BME280;6591;51.446;5.404;2023-04-03T01:59:15;102678.28;;;7.50;53.89
13050;BME280;6591;51.446;5.404;2023-04-03T02:01:44;102687.09;;;7.52;53.20
13050;BME280;6591;51.446;5.404;2023-04-03T02:04:12;102693.25;;;7.54;53.03
13050;BME280;6591;51.446;5.404;2023-04-03T02:06:40;102689.72;;;7.56;53.36
13050;BME280;6591;51.446;5.404;2023-04-03T02:09:07;102687.06;;;7.59;53.64
13050;BME280;6591;51.446;5.404;2023-04-03T02:11:34;102693.25;;;7.61;53.40
13050;BME280;6591;51.446;5.404;2023-04-03T02:14:01;102693.22;;;7.64;53.32
13050;BME280;6591;51.446;5.404;2023-04-03T02:16:29;102691.47;;;7.66;53.23
13050;BME280;6591;51.446;5.404;2023-04-03T02:18:57;102691.47;;;7.68;53.17
13050;BME280;6591;51.446;5.404;2023-04-03T02:21:24;102695.88;;;7.69;53.01
13050;BME280;6591;51.446;5.404;2023-04-03T02:23:53;102691.44;;;7.70;53.30
13050;BME280;6591;51.446;5.404;2023-04-03T02:26:20;102694.09;;;7.70;53.54
13050;BME280;6591;51.446;5.404;2023-04-03T02:28:47;102693.19;;;7.71;52.72
13050;BME280;6591;51.446;5.404;2023-04-03T02:31:14;102693.19;;;7.71;52.91
13050;BME280;6591;51.446;5.404;2023-04-03T02:33:44;102699.38;;;7.73;53.49
13050;BME280;6591;51.446;5.404;2023-04-03T02:36:13;102704.66;;;7.73;53.73
13050;BME280;6591;51.446;5.404;2023-04-03T02:38:43;102697.63;;;7.72;52.72
13050;BME280;6591;51.446;5.404;2023-04-03T02:41:12;102703.78;;;7.71;52.92
13050;BME280;6591;51.446;5.404;2023-04-03T02:43:40;102703.78;;;7.71;53.30
13050;BME280;6591;51.446;5.404;2023-04-03T02:46:07;102707.31;;;7.73;53.24
13050;BME280;6591;51.446;5.404;2023-04-03T02:48:35;102710.81;;;7.75;53.43
13050;BME280;6591;51.446;5.404;2023-04-03T02:51:03;102708.19;;;7.72;53.72
13050;BME280;6591;51.446;5.404;2023-04-03T02:53:30;102709.06;;;7.71;53.20
13050;BME280;6591;51.446;5.404;2023-04-03T02:56:00;102710.84;;;7.69;53.61
13050;BME280;6591;51.446;5.404;2023-04-03T02:58:27;102716.13;;;7.69;53.67
13050;BME280;6591;51.446;5.404;2023-04-03T03:00:57;102718.78;;;7.69;53.66
13050;BME280;6591;51.446;5.404;2023-04-03T03:03:24;102711.72;;;7.68;53.39
13050;BME280;6591;51.446;5.404;2023-04-03T03:06:06;102718.78;;;7.67;53.36
13050;BME280;6591;51.446;5.404;2023-04-03T03:08:34;102719.66;;;7.68;53.16
13050;BME280;6591;51.446;5.404;2023-04-03T03:11:02;102713.50;;;7.69;53.17
13050;BME280;6591;51.446;5.404;2023-04-03T03:13:31;102710.84;;;7.69;53.18
13050;BME280;6591;51.446;5.404;2023-04-03T03:15:59;102708.22;;;7.69;53.74
13050;BME280;6591;51.446;5.404;2023-04-03T03:18:26;102703.81;;;7.68;53.56
13050;BME280;6591;51.446;5.404;2023-04-03T03:20:58;102711.72;;;7.66;53.33
13050;BME280;6591;51.446;5.404;2023-04-03T03:23:30;102705.56;;;7.65;53.31
13050;BME280;6591;51.446;5.404;2023-04-03T03:26:05;102708.22;;;7.64;53.63
13050;BME280;6591;51.446;5.404;2023-04-03T03:28:34;102708.22;;;7.62;53.63
13050;BME280;6591;51.446;5.404;2023-04-03T03:31:03;102714.38;;;7.60;53.63
13050;BME280;6591;51.446;5.404;2023-04-03T03:33:31;102714.41;;;7.58;53.18
13050;BME280;6591;51.446;5.404;2023-04-03T03:36:00;102713.53;;;7.56;53.18
13050;BME280;6591;51.446;5.404;2023-04-03T03:38:28;102710.88;;;7.56;53.57
13050;BME280;6591;51.446;5.404;2023-04-03T03:40:55;102720.56;;;7.56;53.16
13050;BME280;6591;51.446;5.404;2023-04-03T03:43:23;102717.91;;;7.54;53.16
13050;BME280;6591;51.446;5.404;2023-04-03T03:45:53;102725.84;;;7.54;53.86
13050;BME280;6591;51.446;5.404;2023-04-03T03:48:22;102727.59;;;7.54;53.45
13050;BME280;6591;51.446;5.404;2023-04-03T03:50:49;102727.59;;;7.54;53.13
13050;BME280;6591;51.446;5.404;2023-04-03T03:53:19;102725.84;;;7.56;54.01
13050;BME280;6591;51.446;5.404;2023-04-03T03:55:49;102733.78;;;7.57;53.69
13050;BME280;6591;51.446;5.404;2023-04-03T03:58:19;102731.13;;;7.59;53.70
13050;BME280;6591;51.446;5.404;2023-04-03T04:00:46;102732.00;;;7.59;53.17
13050;BME280;6591;51.446;5.404;2023-04-03T04:03:14;102737.28;;;7.59;53.17
13050;BME280;6591;51.446;5.404;2023-04-03T04:05:43;102726.75;;;7.58;53.95
13050;BME280;6591;51.446;5.404;2023-04-03T04:08:11;102735.56;;;7.58;53.26
13050;BME280;6591;51.446;5.404;2023-04-03T04:10:38;102735.56;;;7.58;53.16
13050;BME280;6591;51.446;5.404;2023-04-03T04:13:07;102735.56;;;7.58;53.45
13050;BME280;6591;51.446;5.404;2023-04-03T04:15:35;102733.75;;;7.60;53.30
13050;BME280;6591;51.446;5.404;2023-04-03T04:18:02;102739.06;;;7.60;52.88
13050;BME280;6591;51.446;5.404;2023-04-03T04:20:31;102729.34;;;7.59;53.67
13050;BME280;6591;51.446;5.404;2023-04-03T04:22:58;102735.53;;;7.60;52.77
13050;BME280;6591;51.446;5.404;2023-04-03T04:25:25;102730.28;;;7.58;53.08
13050;BME280;6591;51.446;5.404;2023-04-03T04:27:53;102730.25;;;7.55;53.22
13050;BME280;6591;51.446;5.404;2023-04-03T04:30:20;102747.00;;;7.56;53.62
13050;BME280;6591;51.446;5.404;2023-04-03T04:32:49;102739.06;;;7.54;53.07
13050;BME280;6591;51.446;5.404;2023-04-03T04:35:17;102746.13;;;7.55;53.09
13050;BME280;6591;51.446;5.404;2023-04-03T04:37:46;102732.00;;;7.55;53.46
13050;BME280;6591;51.446;5.404;2023-04-03T04:40:14;102738.22;;;7.52;53.28
13050;BME280;6591;51.446;5.404;2023-04-03T04:42:42;102740.84;;;7.52;53.59
13050;BME280;6591;51.446;5.404;2023-04-03T04:45:10;102742.63;;;7.53;53.60
13050;BME280;6591;51.446;5.404;2023-04-03T04:47:39;102749.66;;;7.53;53.96
13050;BME280;6591;51.446;5.404;2023-04-03T04:50:07;102754.06;;;7.52;53.06
13050;BME280;6591;51.446;5.404;2023-04-03T04:52:34;102749.66;;;7.51;53.69
13050;BME280;6591;51.446;5.404;2023-04-03T04:55:01;102756.69;;;7.51;53.23
13050;BME280;6591;51.446;5.404;2023-04-03T04:57:28;102761.97;;;7.51;53.21
13050;BME280;6591;51.446;5.404;2023-04-03T04:59:58;102760.22;;;7.51;53.62
13050;BME280;6591;51.446;5.404;2023-04-03T05:02:24;102760.22;;;7.51;52.82
13050;BME280;6591;51.446;5.404;2023-04-03T05:04:52;102757.56;;;7.50;52.79
13050;BME280;6591;51.446;5.404;2023-04-03T05:07:25;102762.88;;;7.48;53.64
13050;BME280;6591;51.446;5.404;2023-04-03T05:09:52;102761.97;;;7.49;53.67
13050;BME280;6591;51.446;5.404;2023-04-03T05:12:20;102766.38;;;7.50;53.21
13050;BME280;6591;51.446;5.404;2023-04-03T05:14:53;102761.09;;;7.49;53.27
13050;BME280;6591;51.446;5.404;2023-04-03T05:17:20;102764.66;;;7.48;53.58
13050;BME280;6591;51.446;5.404;2023-04-03T05:19:51;102769.94;;;7.48;53.64
13050;BME280;6591;51.446;5.404;2023-04-03T05:22:20;102776.09;;;7.48;53.77
13050;BME280;6591;51.446;5.404;2023-04-03T05:24:50;102776.09;;;7.51;53.51
13050;BME280;6591;51.446;5.404;2023-04-03T05:27:18;102770.81;;;7.53;53.67
13050;BME280;6591;51.446;5.404;2023-04-03T05:29:52;102778.72;;;7.53;53.71
13050;BME280;6591;51.446;5.404;2023-04-03T05:32:23;102780.47;;;7.54;53.57
13050;BME280;6591;51.446;5.404;2023-04-03T05:34:57;102780.50;;;7.52;53.20
13050;BME280;6591;51.446;5.404;2023-04-03T05:37:27;102790.19;;;7.53;54.21
13050;BME280;6591;51.446;5.404;2023-04-03T05:39:55;102788.41;;;7.52;54.07
13050;BME280;6591;51.446;5.404;2023-04-03T05:42:23;102783.13;;;7.52;54.16
13050;BME280;6591;51.446;5.404;2023-04-03T05:44:49;102787.53;;;7.53;53.73
13050;BME280;6591;51.446;5.404;2023-04-03T05:47:18;102791.91;;;7.54;53.92
13050;BME280;6591;51.446;5.404;2023-04-03T05:49:46;102793.69;;;7.58;54.02
13050;BME280;6591;51.446;5.404;2023-04-03T05:52:28;102788.41;;;7.58;53.54
13050;BME280;6591;51.446;5.404;2023-04-03T05:54:57;102794.56;;;7.62;53.74
13050;BME280;6591;51.446;5.404;2023-04-03T05:57:27;102798.06;;;7.65;54.06
13050;BME280;6591;51.446;5.404;2023-04-03T05:59:55;102790.16;;;7.69;54.05
13050;BME280;6591;51.446;5.404;2023-04-03T06:02:24;102793.66;;;7.74;54.25
13050;BME280;6591;51.446;5.404;2023-04-03T06:04:52;102790.13;;;7.78;54.28
13050;BME280;6591;51.446;5.404;2023-04-03T06:07:22;102798.03;;;7.82;54.34
13050;BME280;6591;51.446;5.404;2023-04-03T06:09:51;102786.56;;;7.88;53.98
13050;BME280;6591;51.446;5.404;2023-04-03T06:12:19;102790.97;;;7.93;54.73
13050;BME280;6591;51.446;5.404;2023-04-03T06:14:46;102795.38;;;7.99;54.40
13050;BME280;6591;51.446;5.404;2023-04-03T06:17:15;102798.84;;;8.07;54.04
13050;BME280;6591;51.446;5.404;2023-04-03T06:19:43;102794.44;;;8.14;54.25
13050;BME280;6591;51.446;5.404;2023-04-03T06:22:10;102792.66;;;8.20;53.93
13050;BME280;6591;51.446;5.404;2023-04-03T06:24:38;102803.19;;;8.28;54.42
13050;BME280;6591;51.446;5.404;2023-04-03T06:27:06;102802.31;;;8.33;54.21
13050;BME280;6591;51.446;5.404;2023-04-03T06:29:33;102807.59;;;8.41;54.40
13050;BME280;6591;51.446;5.404;2023-04-03T06:31:59;102804.00;;;8.48;54.02
13050;BME280;6591;51.446;5.404;2023-04-03T06:34:26;102810.16;;;8.55;54.18
13050;BME280;6591;51.446;5.404;2023-04-03T06:36:55;102808.34;;;8.63;54.17
13050;BME280;6591;51.446;5.404;2023-04-03T06:39:22;102806.53;;;8.71;53.94
13050;BME280;6591;51.446;5.404;2023-04-03T06:41:50;102813.53;;;8.81;53.70
13050;BME280;6591;51.446;5.404;2023-04-03T06:44:25;102804.66;;;8.88;53.78
13050;BME280;6591;51.446;5.404;2023-04-03T06:46:52;102809.00;;;8.98;53.42
13050;BME280;6591;51.446;5.404;2023-04-03T06:49:20;102813.34;;;9.07;52.87
13050;BME280;6591;51.446;5.404;2023-04-03T06:51:49;102816.81;;;9.16;52.91
13050;BME280;6591;51.446;5.404;2023-04-03T06:54:16;102814.13;;;9.25;53.13
13050;BME280;6591;51.446;5.404;2023-04-03T06:56:43;102812.25;;;9.33;52.81
13050;BME280;6591;51.446;5.404;2023-04-03T06:59:12;102825.47;;;9.41;52.88
13050;BME280;6591;51.446;5.404;2023-04-03T07:01:40;102811.25;;;9.48;52.98
13050;BME280;6591;51.446;5.404;2023-04-03T07:04:08;102819.13;;;9.57;52.91
13050;BME280;6591;51.446;5.404;2023-04-03T07:06:35;102816.38;;;9.66;52.64
13050;BME280;6591;51.446;5.404;2023-04-03T07:09:03;102814.53;;;9.74;52.85
13050;BME280;6591;51.446;5.404;2023-04-03T07:11:30;102823.28;;;9.84;53.15
13050;BME280;6591;51.446;5.404;2023-04-03T07:13:57;102828.50;;;9.93;52.93
13050;BME280;6591;51.446;5.404;2023-04-03T07:16:24;102827.50;;;10.03;52.86
13050;BME280;6591;51.446;5.404;2023-04-03T07:18:51;102825.63;;;10.13;52.68
13050;BME280;6591;51.446;5.404;2023-04-03T07:21:18;102828.19;;;10.24;52.59
13050;BME280;6591;51.446;5.404;2023-04-03T07:23:45;102830.72;;;10.33;52.44
13050;BME280;6591;51.446;5.404;2023-04-03T07:26:13;102826.22;;;10.41;52.32
13050;BME280;6591;51.446;5.404;2023-04-03T07:28:40;102833.13;;;10.52;52.54
13050;BME280;6591;51.446;5.404;2023-04-03T07:31:11;102831.25;;;10.60;52.55
13050;BME280;6591;51.446;5.404;2023-04-03T07:33:41;102828.47;;;10.71;52.40
13050;BME280;6591;51.446;5.404;2023-04-03T07:36:14;102834.50;;;10.81;52.24
13050;BME280;6591;51.446;5.404;2023-04-03T07:38:41;102837.03;;;10.90;52.12
13050;BME280;6591;51.446;5.404;2023-04-03T07:41:14;102837.84;;;10.95;51.59
13050;BME280;6591;51.446;5.404;2023-04-03T07:43:42;102846.56;;;11.04;51.61
13050;BME280;6591;51.446;5.404;2023-04-03T07:46:09;102845.53;;;11.15;52.36
13050;BME280;6591;51.446;5.404;2023-04-03T07:48:36;102840.06;;;11.24;52.11
13050;BME280;6591;51.446;5.404;2023-04-03T07:51:05;102841.69;;;11.34;51.90
13050;BME280;6591;51.446;5.404;2023-04-03T07:53:32;102846.84;;;11.43;51.85
13050;BME280;6591;51.446;5.404;2023-04-03T07:56:00;102844.00;;;11.55;51.26
13050;BME280;6591;51.446;5.404;2023-04-03T07:58:29;102846.47;;;11.64;50.98
13050;BME280;6591;51.446;5.404;2023-04-03T08:00:56;102849.88;;;11.72;51.18
13050;BME280;6591;51.446;5.404;2023-04-03T08:03:24;102843.59;;;11.79;50.79
13050;BME280;6591;51.446;5.404;2023-04-03T08:05:51;102843.47;;;11.87;50.39
13050;BME280;6591;51.446;5.404;2023-04-03T08:08:23;102844.19;;;11.94;50.30
13050;BME280;6591;51.446;5.404;2023-04-03T08:10:54;102836.06;;;12.03;50.14
13050;BME280;6591;51.446;5.404;2023-04-03T08:13:22;102833.22;;;12.12;50.42
13050;BME280;6591;51.446;5.404;2023-04-03T08:15:49;102840.97;;;12.24;50.07
13050;BME280;6591;51.446;5.404;2023-04-03T08:18:16;102836.22;;;12.40;50.03
13050;BME280;6591;51.446;5.404;2023-04-03T08:20:45;102833.25;;;12.53;49.88
13050;BME280;6591;51.446;5.404;2023-04-03T08:23:12;102839.13;;;12.67;49.58
13050;BME280;6591;51.446;5.404;2023-04-03T08:25:41;102831.78;;;12.79;49.08
13050;BME280;6591;51.446;5.404;2023-04-03T08:28:10;102840.50;;;12.87;49.20
13050;BME280;6591;51.446;5.404;2023-04-03T08:30:41;102840.28;;;12.96;48.22
13050;BME280;6591;51.446;5.404;2023-04-03T08:33:09;102839.19;;;13.04;48.84
13050;BME280;6591;51.446;5.404;2023-04-03T08:35:41;102839.88;;;13.14;48.56
13050;BME280;6591;51.446;5.404;2023-04-03T08:38:10;102844.06;;;13.24;47.96
13050;BME280;6591;51.446;5.404;2023-04-03T08:40:45;102850.13;;;13.32;48.03
13050;BME280;6591;51.446;5.404;2023-04-03T08:43:56;102851.78;;;13.36;47.53
13050;BME280;6591;51.446;5.404;2023-04-03T08:49:31;102844.97;;;13.60;46.97
13050;BME280;6591;51.446;5.404;2023-04-03T08:52:05;102848.34;;;13.67;46.53
13050;BME280;6591;51.446;5.404;2023-04-03T08:55:01;102857.88;;;13.77;46.84
13050;BME280;6591;51.446;5.404;2023-04-03T08:57:35;102853.06;;;13.91;46.98
13050;BME280;6591;51.446;5.404;2023-04-03T09:00:27;102861.66;;;14.02;46.51
13050;BME280;6591;51.446;5.404;2023-04-03T09:02:56;102846.13;;;14.16;47.25
13050;BME280;6591;51.446;5.404;2023-04-03T09:05:45;102850.13;;;14.32;46.87
13050;BME280;6591;51.446;5.404;2023-04-03T09:08:33;102851.38;;;14.52;45.83
13050;BME280;6591;51.446;5.404;2023-04-03T09:14:07;102851.81;;;14.66;44.07
13050;BME280;6591;51.446;5.404;2023-04-03T09:16:59;102844.75;;;14.65;42.87
13050;BME280;6591;51.446;5.404;2023-04-03T09:22:41;102843.63;;;14.72;43.15
13050;BME280;6591;51.446;5.404;2023-04-03T09:25:29;102847.88;;;14.79;41.98
13050;BME280;6591;51.446;5.404;2023-04-03T09:28:01;102851.09;;;14.90;42.57
13050;BME280;6591;51.446;5.404;2023-04-03T09:30:37;102855.31;;;14.97;41.67
13050;BME280;6591;51.446;5.404;2023-04-03T09:33:05;102855.97;;;15.05;42.29
13050;BME280;6591;51.446;5.404;2023-04-03T09:35:36;102856.56;;;15.15;42.11
13050;BME280;6591;51.446;5.404;2023-04-03T09:38:20;102850.00;;;15.23;40.01
13050;BME280;6591;51.446;5.404;2023-04-03T09:40:50;102856.94;;;15.31;40.62
13050;BME280;6591;51.446;5.404;2023-04-03T09:43:32;102848.66;;;15.38;39.94
13050;BME280;6591;51.446;5.404;2023-04-03T09:49:00;102834.84;;;15.50;38.79
13050;BME280;6591;51.446;5.404;2023-04-03T09:51:36;102839.94;;;15.59;39.34
13050;BME280;6591;51.446;5.404;2023-04-03T09:54:25;102845.16;;;15.64;39.27
13050;BME280;6591;51.446;5.404;2023-04-03T09:56:55;102830.38;;;15.77;39.46
13050;BME280;6591;51.446;5.404;2023-04-03T09:59:25;102824.69;;;15.86;38.57
13050;BME280;6591;51.446;5.404;2023-04-03T10:02:30;102822.19;;;15.82;36.84
13050;BME280;6591;51.446;5.404;2023-04-03T10:04:59;102817.75;;;15.81;36.10
13050;BME280;6591;51.446;5.404;2023-04-03T10:07:37;102808.97;;;15.77;36.54
13050;BME280;6591;51.446;5.404;2023-04-03T10:10:22;102810.84;;;15.75;36.57
13050;BME280;6591;51.446;5.404;2023-04-03T10:13:06;102824.06;;;15.80;36.76
13050;BME280;6591;51.446;5.404;2023-04-03T10:15:50;102809.44;;;15.88;36.80
13050;BME280;6591;51.446;5.404;2023-04-03T10:18:32;102813.66;;;15.95;36.73
13050;BME280;6591;51.446;5.404;2023-04-03T10:21:15;102814.25;;;16.03;36.68
13050;BME280;6591;51.446;5.404;2023-04-03T10:27:16;102810.34;;;16.37;38.00
13050;BME280;6591;51.446;5.404;2023-04-03T10:33:58;102813.50;;;16.48;34.92
13050;BME280;6591;51.446;5.404;2023-04-03T10:36:38;102803.66;;;16.48;35.78
13050;BME280;6591;51.446;5.404;2023-04-03T10:46:13;102786.25;;;16.82;35.16
13050;BME280;6591;51.446;5.404;2023-04-03T10:51:16;102781.50;;;16.88;33.55
13050;BME280;6591;51.446;5.404;2023-04-03T10:54:10;102778.81;;;16.88;32.86
13050;BME280;6591;51.446;5.404;2023-04-03T10:57:03;102777.94;;;16.88;33.56
13050;BME280;6591;51.446;5.404;2023-04-03T10:59:45;102777.75;;;16.92;32.80
13050;BME280;6591;51.446;5.404;2023-04-03T11:02:31;102769.47;;;16.99;32.67
13050;BME280;6591;51.446;5.404;2023-04-03T11:05:31;102766.53;;;17.05;33.43
13050;BME280;6591;51.446;5.404;2023-04-03T11:11:03;102769.41;;;17.42;35.10
13050;BME280;6591;51.446;5.404;2023-04-03T11:13:41;102765.75;;;17.65;34.04
13050;BME280;6591;51.446;5.404;2023-04-03T11:16:20;102763.84;;;17.87;34.81
13050;BME280;6591;51.446;5.404;2023-04-03T11:19:18;102758.50;;;18.06;34.53
13050;BME280;6591;51.446;5.404;2023-04-03T11:22:05;102755.91;;;18.23;34.65
13050;BME280;6591;51.446;5.404;2023-04-03T11:24:39;102758.47;;;18.45;34.72
13050;BME280;6591;51.446;5.404;2023-04-03T11:27:19;102752.41;;;18.60;33.24
13050;BME280;6591;51.446;5.404;2023-04-03T11:29:51;102754.41;;;18.74;34.07
13050;BME280;6591;51.446;5.404;2023-04-03T11:32:49;102743.56;;;18.75;32.47
13050;BME280;6591;51.446;5.404;2023-04-03T11:35:19;102745.50;;;18.73;32.89
13050;BME280;6591;51.446;5.404;2023-04-03T11:37:52;102740.94;;;18.74;31.95
13050;BME280;6591;51.446;5.404;2023-04-03T11:40:25;102722.50;;;18.66;31.29
13050;BME280;6591;51.446;5.404;2023-04-03T11:43:07;102726.84;;;18.50;29.07
13050;BME280;6591;51.446;5.404;2023-04-03T11:46:03;102726.00;;;18.31;30.07
13050;BME280;6591;51.446;5.404;2023-04-03T12:16:55;102703.88;;;18.24;31.83
13050;BME280;6591;51.446;5.404;2023-04-03T12:19:35;102712.81;;;18.43;31.71
13050;BME280;6591;51.446;5.404;2023-04-03T12:22:10;102712.75;;;18.63;32.16
13050;BME280;6591;51.446;5.404;2023-04-03T12:24:45;102697.59;;;18.80;31.20
13050;BME280;6591;51.446;5.404;2023-04-03T12:27:33;102709.56;;;18.91;31.07
13050;BME280;6591;51.446;5.404;2023-04-03T12:30:12;102703.81;;;18.99;30.68
13050;BME280;6591;51.446;5.404;2023-04-03T12:33:04;102694.63;;;19.03;31.37
13050;BME280;6591;51.446;5.404;2023-04-03T12:35:49;102698.22;;;19.21;32.00
13050;BME280;6591;51.446;5.404;2023-04-03T12:38:37;102698.41;;;19.33;30.15
13050;BME280;6591;51.446;5.404;2023-04-03T12:41:30;102691.16;;;19.35;30.38
13050;BME280;6591;51.446;5.404;2023-04-03T12:44:20;102687.66;;;19.33;30.54
13050;BME280;6591;51.446;5.404;2023-04-03T12:46:52;102688.44;;;19.35;30.15
13050;BME280;6591;51.446;5.404;2023-04-03T12:49:35;102677.91;;;19.31;29.54
13050;BME280;6591;51.446;5.404;2023-04-03T12:52:41;102668.78;;;19.16;28.82
13050;BME280;6591;51.446;5.404;2023-04-03T12:55:18;102667.22;;;19.12;29.20
13050;BME280;6591;51.446;5.404;2023-04-03T12:57:48;102665.22;;;19.16;30.33
13050;BME280;6591;51.446;5.404;2023-04-03T13:00:34;102668.47;;;19.22;30.46
13050;BME280;6591;51.446;5.404;2023-04-03T13:03:04;102662.59;;;19.31;29.02
13050;BME280;6591;51.446;5.404;2023-04-03T13:05:34;102664.03;;;19.38;29.99
13050;BME280;6591;51.446;5.404;2023-04-03T13:08:10;102653.94;;;19.42;29.48
13050;BME280;6591;51.446;5.404;2023-04-03T13:11:06;102655.16;;;19.36;29.72
13050;BME280;6591;51.446;5.404;2023-04-03T13:13:35;102654.94;;;19.41;29.58
13050;BME280;6591;51.446;5.404;2023-04-03T13:16:11;102665.78;;;19.39;29.77
13050;BME280;6591;51.446;5.404;2023-04-03T13:18:40;102655.81;;;19.41;29.18
13050;BME280;6591;51.446;5.404;2023-04-03T13:21:17;102652.56;;;19.35;28.60
13050;BME280;6591;51.446;5.404;2023-04-03T13:23:50;102648.34;;;19.29;28.61
13050;BME280;6591;51.446;5.404;2023-04-03T13:26:32;102646.94;;;19.22;28.33
13050;BME280;6591;51.446;5.404;2023-04-03T13:29:19;102644.09;;;19.08;28.16
13050;BME280;6591;51.446;5.404;2023-04-03T13:31:59;102646.97;;;19.05;29.46
13050;BME280;6591;51.446;5.404;2023-04-03T13:34:39;102637.84;;;19.08;29.73
13050;BME280;6591;51.446;5.404;2023-04-03T13:40:12;102634.38;;;19.38;31.04
13050;BME280;6591;51.446;5.404;2023-04-03T13:42:41;102635.88;;;19.61;31.55
13050;BME280;6591;51.446;5.404;2023-04-03T13:45:27;102634.19;;;19.76;30.17
13050;BME280;6591;51.446;5.404;2023-04-03T13:48:19;102635.31;;;19.87;30.42
13050;BME280;6591;51.446;5.404;2023-04-03T13:53:26;102635.06;;;19.92;30.20
13050;BME280;6591;51.446;5.404;2023-04-03T13:58:32;102627.25;;;20.03;30.94
13050;BME280;6591;51.446;5.404;2023-04-03T14:01:07;102621.53;;;20.09;30.09
13050;BME280;6591;51.446;5.404;2023-04-03T14:04:21;102622.03;;;20.16;30.96
13050;BME280;6591;51.446;5.404;2023-04-03T14:06:49;102614.25;;;20.25;29.57
13050;BME280;6591;51.446;5.404;2023-04-03T14:09:20;102607.31;;;20.21;29.38
13050;BME280;6591;51.446;5.404;2023-04-03T14:11:49;102616.13;;;20.25;30.45
13050;BME280;6591;51.446;5.404;2023-04-03T14:14:24;102614.66;;;20.35;30.15
13050;BME280;6591;51.446;5.404;2023-04-03T14:16:59;102611.50;;;20.43;30.00
13050;BME280;6591;51.446;5.404;2023-04-03T14:19:33;102610.00;;;20.53;30.54
13050;BME280;6591;51.446;5.404;2023-04-03T14:22:16;102610.31;;;20.62;30.78
13050;BME280;6591;51.446;5.404;2023-04-03T14:24:44;102615.97;;;20.73;30.02
13050;BME280;6591;51.446;5.404;2023-04-03T14:27:32;102603.69;;;20.68;29.20
13050;BME280;6591;51.446;5.404;2023-04-03T14:30:00;102601.69;;;20.71;29.98
13050;BME280;6591;51.446;5.404;2023-04-03T14:32:27;102610.19;;;20.80;31.06
13050;BME280;6591;51.446;5.404;2023-04-03T14:34:55;102601.47;;;20.90;30.33
13050;BME280;6591;51.446;5.404;2023-04-03T14:37:28;102615.38;;;20.98;30.51
13050;BME280;6591;51.446;5.404;2023-04-03T14:39:59;102611.53;;;21.02;29.91
13050;BME280;6591;51.446;5.404;2023-04-03T14:42:34;102602.03;;;20.95;28.94
13050;BME280;6591;51.446;5.404;2023-04-03T14:45:06;102600.78;;;20.87;28.43